sensor_id;sensor_type;location;lat;lon;timestamp;P1;durP1;ratioP1;P2;durP2;ratioP2
75280;SDS011;63874;47.230;39.620;2022-12-18T00:02:20;0.98;;;0.75;;
75280;SDS011;63874;47.230;39.620;2022-12-18T00:04:47;1.08;;;0.70;;
75280;SDS011;63874;47.230;39.620;2022-12-18T00:07:13;0.63;;;0.35;;
75280;SDS011;63874;47.230;39.620;2022-12-18T00:09:39;1.00;;;0.50;;
75280;SDS011;63874;47.230;39.620;2022-12-18T00:12:05;0.68;;;0.32;;
75280;SDS011;63874;47.230;39.620;2022-12-18T00:14:31;0.98;;;0.32;;
75280;SDS011;63874;47.230;39.620;2022-12-18T00:16:57;0.80;;;0.43;;
75280;SDS011;63874;47.230;39.620;2022-12-18T00:19:26;0.93;;;0.57;;
75280;SDS011;63874;47.230;39.620;2022-12-18T00:21:52;1.30;;;0.32;;
75280;SDS011;63874;47.230;39.620;2022-12-18T00:24:18;0.75;;;0.45;;
75280;SDS011;63874;47.230;39.620;2022-12-18T00:26:44;0.55;;;0.35;;
75280;SDS011;63874;47.230;39.620;2022-12-18T00:29:11;0.75;;;0.52;;
75280;SDS011;63874;47.230;39.620;2022-12-18T00:31:39;0.63;;;0.22;;
75280;SDS011;63874;47.230;39.620;2022-12-18T00:34:05;0.75;;;0.45;;
75280;SDS011;63874;47.230;39.620;2022-12-18T00:36:33;0.90;;;0.50;;
75280;SDS011;63874;47.230;39.620;2022-12-18T00:39:02;0.63;;;0.25;;
75280;SDS011;63874;47.230;39.620;2022-12-18T00:41:32;1.13;;;0.43;;
75280;SDS011;63874;47.230;39.620;2022-12-18T00:44:17;0.85;;;0.38;;
75280;SDS011;63874;47.230;39.620;2022-12-18T00:46:44;0.85;;;0.47;;
75280;SDS011;63874;47.230;39.620;2022-12-18T00:49:12;0.85;;;0.57;;
75280;SDS011;63874;47.230;39.620;2022-12-18T00:51:38;0.95;;;0.43;;
75280;SDS011;63874;47.230;39.620;2022-12-18T00:54:04;0.75;;;0.60;;
75280;SDS011;63874;47.230;39.620;2022-12-18T00:56:30;1.27;;;0.47;;
75280;SDS011;63874;47.230;39.620;2022-12-18T00:58:56;0.70;;;0.40;;
75280;SDS011;63874;47.230;39.620;2022-12-18T01:01:22;0.82;;;0.22;;
75280;SDS011;63874;47.230;39.620;2022-12-18T01:03:48;0.52;;;0.13;;
75280;SDS011;63874;47.230;39.620;2022-12-18T01:06:15;0.60;;;0.35;;
75280;SDS011;63874;47.230;39.620;2022-12-18T01:08:42;1.00;;;0.55;;
75280;SDS011;63874;47.230;39.620;2022-12-18T01:11:12;0.73;;;0.45;;
75280;SDS011;63874;47.230;39.620;2022-12-18T01:13:40;1.38;;;0.25;;
75280;SDS011;63874;47.230;39.620;2022-12-18T01:16:06;0.88;;;0.45;;
75280;SDS011;63874;47.230;39.620;2022-12-18T01:18:34;0.70;;;0.45;;
75280;SDS011;63874;47.230;39.620;2022-12-18T01:21:00;0.70;;;0.32;;
75280;SDS011;63874;47.230;39.620;2022-12-18T01:23:30;0.50;;;0.25;;
75280;SDS011;63874;47.230;39.620;2022-12-18T01:26:03;0.57;;;0.38;;
75280;SDS011;63874;47.230;39.620;2022-12-18T01:28:34;0.73;;;0.25;;
75280;SDS011;63874;47.230;39.620;2022-12-18T01:31:14;0.60;;;0.22;;
75280;SDS011;63874;47.230;39.620;2022-12-18T01:33:42;0.80;;;0.25;;
75280;SDS011;63874;47.230;39.620;2022-12-18T01:36:13;0.65;;;0.45;;
75280;SDS011;63874;47.230;39.620;2022-12-18T01:38:40;0.80;;;0.60;;
75280;SDS011;63874;47.230;39.620;2022-12-18T01:41:08;1.40;;;0.63;;
75280;SDS011;63874;47.230;39.620;2022-12-18T01:46:12;0.60;;;0.30;;
75280;SDS011;63874;47.230;39.620;2022-12-18T01:48:38;0.80;;;0.35;;
75280;SDS011;63874;47.230;39.620;2022-12-18T01:51:06;0.77;;;0.40;;
75280;SDS011;63874;47.230;39.620;2022-12-18T01:53:34;1.25;;;0.85;;
75280;SDS011;63874;47.230;39.620;2022-12-18T01:56:01;0.82;;;0.47;;
75280;SDS011;63874;47.230;39.620;2022-12-18T01:58:30;0.63;;;0.30;;
75280;SDS011;63874;47.230;39.620;2022-12-18T02:01:02;0.65;;;0.35;;
75280;SDS011;63874;47.230;39.620;2022-12-18T02:03:31;1.00;;;0.55;;
75280;SDS011;63874;47.230;39.620;2022-12-18T02:06:16;0.73;;;0.35;;
75280;SDS011;63874;47.230;39.620;2022-12-18T02:17:36;0.63;;;0.25;;
75280;SDS011;63874;47.230;39.620;2022-12-18T02:30:35;0.68;;;0.47;;
75280;SDS011;63874;47.230;39.620;2022-12-18T02:33:04;0.70;;;0.38;;
75280;SDS011;63874;47.230;39.620;2022-12-18T02:35:34;0.88;;;0.52;;
75280;SDS011;63874;47.230;39.620;2022-12-18T02:38:02;0.75;;;0.30;;
75280;SDS011;63874;47.230;39.620;2022-12-18T02:40:33;0.75;;;0.35;;
75280;SDS011;63874;47.230;39.620;2022-12-18T02:43:12;0.88;;;0.52;;
75280;SDS011;63874;47.230;39.620;2022-12-18T02:45:47;1.02;;;0.57;;
75280;SDS011;63874;47.230;39.620;2022-12-18T02:48:16;1.02;;;0.70;;
75280;SDS011;63874;47.230;39.620;2022-12-18T02:50:47;0.80;;;0.22;;
75280;SDS011;63874;47.230;39.620;2022-12-18T02:58:51;0.77;;;0.50;;
75280;SDS011;63874;47.230;39.620;2022-12-18T03:07:11;1.10;;;0.55;;
75280;SDS011;63874;47.230;39.620;2022-12-18T03:09:43;0.85;;;0.55;;
75280;SDS011;63874;47.230;39.620;2022-12-18T03:12:24;1.25;;;0.30;;
75280;SDS011;63874;47.230;39.620;2022-12-18T03:15:02;0.88;;;0.32;;
75280;SDS011;63874;47.230;39.620;2022-12-18T03:17:38;0.82;;;0.28;;
75280;SDS011;63874;47.230;39.620;2022-12-18T03:20:10;0.68;;;0.40;;
75280;SDS011;63874;47.230;39.620;2022-12-18T03:22:40;0.73;;;0.32;;
75280;SDS011;63874;47.230;39.620;2022-12-18T03:25:11;0.95;;;0.57;;
75280;SDS011;63874;47.230;39.620;2022-12-18T03:27:40;0.70;;;0.35;;
75280;SDS011;63874;47.230;39.620;2022-12-18T03:30:13;1.15;;;0.32;;
75280;SDS011;63874;47.230;39.620;2022-12-18T03:32:47;0.82;;;0.57;;
75280;SDS011;63874;47.230;39.620;2022-12-18T03:35:35;0.82;;;0.45;;
75280;SDS011;63874;47.230;39.620;2022-12-18T03:38:04;1.20;;;0.70;;
75280;SDS011;63874;47.230;39.620;2022-12-18T03:43:24;1.00;;;0.90;;
75280;SDS011;63874;47.230;39.620;2022-12-18T03:49:17;1.25;;;0.28;;
75280;SDS011;63874;47.230;39.620;2022-12-18T03:54:27;1.38;;;0.25;;
75280;SDS011;63874;47.230;39.620;2022-12-18T03:57:11;1.15;;;0.32;;
75280;SDS011;63874;47.230;39.620;2022-12-18T03:59:53;1.17;;;0.80;;
75280;SDS011;63874;47.230;39.620;2022-12-18T04:02:26;0.73;;;0.25;;
75280;SDS011;63874;47.230;39.620;2022-12-18T04:04:57;0.98;;;0.32;;
75280;SDS011;63874;47.230;39.620;2022-12-18T04:07:26;0.90;;;0.40;;
75280;SDS011;63874;47.230;39.620;2022-12-18T04:09:57;1.65;;;0.55;;
75280;SDS011;63874;47.230;39.620;2022-12-18T04:12:25;3.35;;;0.35;;
75280;SDS011;63874;47.230;39.620;2022-12-18T04:14:52;1.00;;;0.43;;
75280;SDS011;63874;47.230;39.620;2022-12-18T04:17:21;0.93;;;0.43;;
75280;SDS011;63874;47.230;39.620;2022-12-18T04:19:48;1.40;;;0.75;;
75280;SDS011;63874;47.230;39.620;2022-12-18T04:22:15;1.17;;;0.52;;
75280;SDS011;63874;47.230;39.620;2022-12-18T04:24:45;0.90;;;0.55;;
75280;SDS011;63874;47.230;39.620;2022-12-18T04:27:19;0.80;;;0.52;;
75280;SDS011;63874;47.230;39.620;2022-12-18T04:29:48;1.42;;;0.65;;
75280;SDS011;63874;47.230;39.620;2022-12-18T04:32:14;1.38;;;0.63;;
75280;SDS011;63874;47.230;39.620;2022-12-18T04:34:42;0.93;;;0.40;;
75280;SDS011;63874;47.230;39.620;2022-12-18T04:37:09;0.93;;;0.55;;
75280;SDS011;63874;47.230;39.620;2022-12-18T04:39:35;1.23;;;0.52;;
75280;SDS011;63874;47.230;39.620;2022-12-18T04:42:06;1.13;;;0.28;;
75280;SDS011;63874;47.230;39.620;2022-12-18T04:44:33;0.98;;;0.43;;
75280;SDS011;63874;47.230;39.620;2022-12-18T04:46:59;1.25;;;0.50;;
75280;SDS011;63874;47.230;39.620;2022-12-18T04:49:25;1.02;;;0.47;;
75280;SDS011;63874;47.230;39.620;2022-12-18T04:51:51;0.75;;;0.25;;
75280;SDS011;63874;47.230;39.620;2022-12-18T04:54:19;0.82;;;0.47;;
75280;SDS011;63874;47.230;39.620;2022-12-18T04:56:45;1.10;;;0.25;;
75280;SDS011;63874;47.230;39.620;2022-12-18T04:59:12;1.35;;;0.73;;
75280;SDS011;63874;47.230;39.620;2022-12-18T05:01:38;1.00;;;0.28;;
75280;SDS011;63874;47.230;39.620;2022-12-18T05:04:04;1.10;;;0.80;;
75280;SDS011;63874;47.230;39.620;2022-12-18T05:06:30;0.80;;;0.40;;
75280;SDS011;63874;47.230;39.620;2022-12-18T05:08:56;1.23;;;0.57;;
75280;SDS011;63874;47.230;39.620;2022-12-18T05:11:22;0.82;;;0.22;;
75280;SDS011;63874;47.230;39.620;2022-12-18T05:13:49;0.73;;;0.55;;
75280;SDS011;63874;47.230;39.620;2022-12-18T05:16:14;1.00;;;0.20;;
75280;SDS011;63874;47.230;39.620;2022-12-18T05:18:41;1.20;;;0.47;;
75280;SDS011;63874;47.230;39.620;2022-12-18T05:21:07;0.93;;;0.22;;
75280;SDS011;63874;47.230;39.620;2022-12-18T05:23:33;1.20;;;0.45;;
75280;SDS011;63874;47.230;39.620;2022-12-18T05:26:00;1.33;;;0.65;;
75280;SDS011;63874;47.230;39.620;2022-12-18T05:28:28;0.98;;;0.28;;
75280;SDS011;63874;47.230;39.620;2022-12-18T05:30:56;0.90;;;0.47;;
75280;SDS011;63874;47.230;39.620;2022-12-18T05:33:24;1.33;;;0.73;;
75280;SDS011;63874;47.230;39.620;2022-12-18T05:35:51;1.35;;;0.30;;
75280;SDS011;63874;47.230;39.620;2022-12-18T05:38:19;0.95;;;0.25;;
75280;SDS011;63874;47.230;39.620;2022-12-18T05:40:46;1.67;;;0.63;;
75280;SDS011;63874;47.230;39.620;2022-12-18T05:43:13;1.30;;;0.52;;
75280;SDS011;63874;47.230;39.620;2022-12-18T05:45:39;1.08;;;0.52;;
75280;SDS011;63874;47.230;39.620;2022-12-18T05:48:06;1.23;;;0.63;;
75280;SDS011;63874;47.230;39.620;2022-12-18T05:50:36;1.45;;;0.60;;
75280;SDS011;63874;47.230;39.620;2022-12-18T05:53:04;1.10;;;0.50;;
75280;SDS011;63874;47.230;39.620;2022-12-18T05:55:37;1.25;;;1.08;;
75280;SDS011;63874;47.230;39.620;2022-12-18T05:58:04;1.02;;;0.47;;
75280;SDS011;63874;47.230;39.620;2022-12-18T06:00:32;1.25;;;0.88;;
75280;SDS011;63874;47.230;39.620;2022-12-18T06:03:00;1.90;;;0.45;;
75280;SDS011;63874;47.230;39.620;2022-12-18T06:05:26;1.17;;;0.45;;
75280;SDS011;63874;47.230;39.620;2022-12-18T06:07:52;1.27;;;0.70;;
75280;SDS011;63874;47.230;39.620;2022-12-18T06:10:18;1.30;;;0.43;;
75280;SDS011;63874;47.230;39.620;2022-12-18T06:12:44;1.13;;;0.47;;
75280;SDS011;63874;47.230;39.620;2022-12-18T06:15:10;1.08;;;0.68;;
75280;SDS011;63874;47.230;39.620;2022-12-18T06:17:36;1.13;;;0.45;;
75280;SDS011;63874;47.230;39.620;2022-12-18T06:20:02;2.20;;;0.85;;
75280;SDS011;63874;47.230;39.620;2022-12-18T06:22:30;1.38;;;0.57;;
75280;SDS011;63874;47.230;39.620;2022-12-18T06:24:57;1.50;;;0.45;;
75280;SDS011;63874;47.230;39.620;2022-12-18T06:27:24;0.95;;;0.50;;
75280;SDS011;63874;47.230;39.620;2022-12-18T06:29:50;1.13;;;0.25;;
75280;SDS011;63874;47.230;39.620;2022-12-18T06:32:16;1.42;;;0.60;;
75280;SDS011;63874;47.230;39.620;2022-12-18T06:34:42;1.67;;;0.75;;
75280;SDS011;63874;47.230;39.620;2022-12-18T06:37:08;1.05;;;0.38;;
75280;SDS011;63874;47.230;39.620;2022-12-18T06:39:34;0.93;;;0.52;;
75280;SDS011;63874;47.230;39.620;2022-12-18T06:42:00;1.25;;;0.47;;
75280;SDS011;63874;47.230;39.620;2022-12-18T06:44:26;1.70;;;0.65;;
75280;SDS011;63874;47.230;39.620;2022-12-18T06:46:52;1.25;;;0.32;;
75280;SDS011;63874;47.230;39.620;2022-12-18T06:49:18;1.33;;;0.45;;
75280;SDS011;63874;47.230;39.620;2022-12-18T06:51:44;0.95;;;0.45;;
75280;SDS011;63874;47.230;39.620;2022-12-18T06:54:09;0.98;;;0.40;;
75280;SDS011;63874;47.230;39.620;2022-12-18T06:56:35;2.08;;;0.43;;
75280;SDS011;63874;47.230;39.620;2022-12-18T06:59:01;2.55;;;0.80;;
75280;SDS011;63874;47.230;39.620;2022-12-18T07:01:29;1.17;;;0.65;;
75280;SDS011;63874;47.230;39.620;2022-12-18T07:04:00;0.90;;;0.35;;
75280;SDS011;63874;47.230;39.620;2022-12-18T07:06:27;1.73;;;0.52;;
75280;SDS011;63874;47.230;39.620;2022-12-18T07:09:01;1.00;;;0.25;;
75280;SDS011;63874;47.230;39.620;2022-12-18T07:11:34;1.45;;;0.40;;
75280;SDS011;63874;47.230;39.620;2022-12-18T07:14:01;1.45;;;0.28;;
75280;SDS011;63874;47.230;39.620;2022-12-18T07:16:27;1.83;;;0.52;;
75280;SDS011;63874;47.230;39.620;2022-12-18T07:18:54;1.45;;;0.45;;
75280;SDS011;63874;47.230;39.620;2022-12-18T07:21:20;1.17;;;0.68;;
75280;SDS011;63874;47.230;39.620;2022-12-18T07:23:48;1.00;;;0.30;;
75280;SDS011;63874;47.230;39.620;2022-12-18T07:26:16;1.42;;;0.68;;
75280;SDS011;63874;47.230;39.620;2022-12-18T07:28:43;1.10;;;0.35;;
75280;SDS011;63874;47.230;39.620;2022-12-18T07:31:10;1.20;;;0.52;;
75280;SDS011;63874;47.230;39.620;2022-12-18T07:33:38;1.17;;;0.60;;
75280;SDS011;63874;47.230;39.620;2022-12-18T07:36:04;1.33;;;0.75;;
75280;SDS011;63874;47.230;39.620;2022-12-18T07:38:32;2.38;;;0.85;;
75280;SDS011;63874;47.230;39.620;2022-12-18T07:41:12;1.27;;;0.57;;
75280;SDS011;63874;47.230;39.620;2022-12-18T07:43:39;1.90;;;0.75;;
75280;SDS011;63874;47.230;39.620;2022-12-18T07:46:06;1.73;;;0.47;;
75280;SDS011;63874;47.230;39.620;2022-12-18T07:48:33;2.65;;;0.55;;
75280;SDS011;63874;47.230;39.620;2022-12-18T07:50:59;3.83;;;0.88;;
75280;SDS011;63874;47.230;39.620;2022-12-18T07:53:27;4.10;;;1.00;;
75280;SDS011;63874;47.230;39.620;2022-12-18T07:56:01;1.80;;;0.50;;
75280;SDS011;63874;47.230;39.620;2022-12-18T07:58:29;3.00;;;0.90;;
75280;SDS011;63874;47.230;39.620;2022-12-18T08:01:02;7.43;;;2.88;;
75280;SDS011;63874;47.230;39.620;2022-12-18T08:03:32;6.72;;;1.40;;
75280;SDS011;63874;47.230;39.620;2022-12-18T08:05:59;2.88;;;0.65;;
75280;SDS011;63874;47.230;39.620;2022-12-18T08:08:29;11.02;;;1.95;;
75280;SDS011;63874;47.230;39.620;2022-12-18T08:10:56;5.60;;;0.73;;
75280;SDS011;63874;47.230;39.620;2022-12-18T08:13:23;9.18;;;0.98;;
75280;SDS011;63874;47.230;39.620;2022-12-18T08:16:02;10.63;;;1.48;;
75280;SDS011;63874;47.230;39.620;2022-12-18T08:18:33;5.38;;;1.35;;
75280;SDS011;63874;47.230;39.620;2022-12-18T08:21:13;8.70;;;1.23;;
75280;SDS011;63874;47.230;39.620;2022-12-18T08:23:50;6.30;;;1.02;;
75280;SDS011;63874;47.230;39.620;2022-12-18T08:26:19;12.10;;;1.55;;
75280;SDS011;63874;47.230;39.620;2022-12-18T08:28:46;7.32;;;1.30;;
75280;SDS011;63874;47.230;39.620;2022-12-18T08:31:13;5.80;;;1.02;;
75280;SDS011;63874;47.230;39.620;2022-12-18T08:33:39;9.57;;;1.38;;
75280;SDS011;63874;47.230;39.620;2022-12-18T08:36:06;10.30;;;1.08;;
75280;SDS011;63874;47.230;39.620;2022-12-18T08:38:32;18.45;;;2.70;;
75280;SDS011;63874;47.230;39.620;2022-12-18T08:40:59;12.15;;;2.72;;
75280;SDS011;63874;47.230;39.620;2022-12-18T08:43:29;8.00;;;1.00;;
75280;SDS011;63874;47.230;39.620;2022-12-18T08:46:14;12.27;;;1.25;;
75280;SDS011;63874;47.230;39.620;2022-12-18T08:48:44;4.00;;;0.88;;
75280;SDS011;63874;47.230;39.620;2022-12-18T08:51:11;7.05;;;1.02;;
75280;SDS011;63874;47.230;39.620;2022-12-18T08:53:37;0.95;;;0.32;;
75280;SDS011;63874;47.230;39.620;2022-12-18T08:56:03;12.40;;;1.15;;
75280;SDS011;63874;47.230;39.620;2022-12-18T08:58:30;7.00;;;1.55;;
75280;SDS011;63874;47.230;39.620;2022-12-18T09:01:02;16.55;;;1.75;;
75280;SDS011;63874;47.230;39.620;2022-12-18T09:03:29;17.33;;;1.98;;
75280;SDS011;63874;47.230;39.620;2022-12-18T09:05:55;4.68;;;1.27;;
75280;SDS011;63874;47.230;39.620;2022-12-18T09:08:21;17.17;;;1.40;;
75280;SDS011;63874;47.230;39.620;2022-12-18T09:10:50;3.63;;;0.73;;
75280;SDS011;63874;47.230;39.620;2022-12-18T09:13:17;9.88;;;1.55;;
75280;SDS011;63874;47.230;39.620;2022-12-18T09:15:44;9.90;;;1.10;;
75280;SDS011;63874;47.230;39.620;2022-12-18T09:18:12;7.53;;;0.82;;
75280;SDS011;63874;47.230;39.620;2022-12-18T09:20:39;6.22;;;0.73;;
75280;SDS011;63874;47.230;39.620;2022-12-18T09:23:06;9.80;;;1.17;;
75280;SDS011;63874;47.230;39.620;2022-12-18T09:25:32;15.05;;;1.50;;
75280;SDS011;63874;47.230;39.620;2022-12-18T09:28:19;7.57;;;0.82;;
75280;SDS011;63874;47.230;39.620;2022-12-18T09:30:46;6.22;;;0.55;;
75280;SDS011;63874;47.230;39.620;2022-12-18T09:33:13;3.00;;;0.25;;
75280;SDS011;63874;47.230;39.620;2022-12-18T09:35:39;2.75;;;0.38;;
75280;SDS011;63874;47.230;39.620;2022-12-18T09:38:07;3.35;;;0.82;;
75280;SDS011;63874;47.230;39.620;2022-12-18T09:40:39;9.85;;;0.88;;
75280;SDS011;63874;47.230;39.620;2022-12-18T09:43:09;2.47;;;0.63;;
75280;SDS011;63874;47.230;39.620;2022-12-18T09:45:48;3.63;;;0.32;;
75280;SDS011;63874;47.230;39.620;2022-12-18T09:48:25;7.30;;;0.70;;
75280;SDS011;63874;47.230;39.620;2022-12-18T09:51:02;8.25;;;1.05;;
75280;SDS011;63874;47.230;39.620;2022-12-18T09:53:38;4.20;;;0.93;;
75280;SDS011;63874;47.230;39.620;2022-12-18T09:56:12;3.22;;;0.45;;
75280;SDS011;63874;47.230;39.620;2022-12-18T09:58:48;11.48;;;0.95;;
75280;SDS011;63874;47.230;39.620;2022-12-18T10:01:21;4.10;;;0.70;;
75280;SDS011;63874;47.230;39.620;2022-12-18T10:03:49;5.93;;;0.82;;
75280;SDS011;63874;47.230;39.620;2022-12-18T10:06:32;3.30;;;0.55;;
75280;SDS011;63874;47.230;39.620;2022-12-18T10:14:30;1.73;;;0.60;;
75280;SDS011;63874;47.230;39.620;2022-12-18T10:17:07;2.15;;;0.52;;
75280;SDS011;63874;47.230;39.620;2022-12-18T10:19:56;2.78;;;0.93;;
75280;SDS011;63874;47.230;39.620;2022-12-18T10:22:36;0.63;;;0.22;;
75280;SDS011;63874;47.230;39.620;2022-12-18T10:25:23;1.80;;;0.55;;
75280;SDS011;63874;47.230;39.620;2022-12-18T10:27:55;1.50;;;0.52;;
75280;SDS011;63874;47.230;39.620;2022-12-18T10:30:23;1.15;;;0.47;;
75280;SDS011;63874;47.230;39.620;2022-12-18T10:32:50;2.60;;;0.45;;
75280;SDS011;63874;47.230;39.620;2022-12-18T10:35:26;1.10;;;0.38;;
75280;SDS011;63874;47.230;39.620;2022-12-18T10:37:59;1.45;;;0.35;;
75280;SDS011;63874;47.230;39.620;2022-12-18T10:41:23;0.50;;;0.17;;
75280;SDS011;63874;47.230;39.620;2022-12-18T10:46:53;0.98;;;0.45;;
75280;SDS011;63874;47.230;39.620;2022-12-18T10:49:29;0.75;;;0.32;;
75280;SDS011;63874;47.230;39.620;2022-12-18T10:52:05;0.77;;;0.25;;
75280;SDS011;63874;47.230;39.620;2022-12-18T10:54:50;0.70;;;0.25;;
75280;SDS011;63874;47.230;39.620;2022-12-18T10:59:52;2.15;;;0.52;;
75280;SDS011;63874;47.230;39.620;2022-12-18T11:02:37;1.60;;;0.50;;
75280;SDS011;63874;47.230;39.620;2022-12-18T11:05:22;1.58;;;0.90;;
75280;SDS011;63874;47.230;39.620;2022-12-18T11:07:51;1.33;;;0.55;;
75280;SDS011;63874;47.230;39.620;2022-12-18T11:10:20;1.90;;;0.60;;
75280;SDS011;63874;47.230;39.620;2022-12-18T11:12:47;6.10;;;1.10;;
75280;SDS011;63874;47.230;39.620;2022-12-18T11:15:15;1.55;;;0.70;;
75280;SDS011;63874;47.230;39.620;2022-12-18T11:17:47;2.88;;;0.77;;
75280;SDS011;63874;47.230;39.620;2022-12-18T11:20:36;4.80;;;0.50;;
75280;SDS011;63874;47.230;39.620;2022-12-18T11:23:05;7.80;;;1.27;;
75280;SDS011;63874;47.230;39.620;2022-12-18T11:25:38;7.43;;;0.63;;
75280;SDS011;63874;47.230;39.620;2022-12-18T11:34:20;3.72;;;0.88;;
75280;SDS011;63874;47.230;39.620;2022-12-18T11:36:52;3.65;;;0.43;;
75280;SDS011;63874;47.230;39.620;2022-12-18T11:39:39;1.55;;;0.68;;
75280;SDS011;63874;47.230;39.620;2022-12-18T11:42:10;2.03;;;0.73;;
75280;SDS011;63874;47.230;39.620;2022-12-18T11:44:45;6.25;;;1.35;;
75280;SDS011;63874;47.230;39.620;2022-12-18T11:50:24;3.47;;;0.93;;
75280;SDS011;63874;47.230;39.620;2022-12-18T11:52:51;7.57;;;0.88;;
75280;SDS011;63874;47.230;39.620;2022-12-18T11:58:02;8.20;;;1.98;;
75280;SDS011;63874;47.230;39.620;2022-12-18T12:09:36;13.73;;;1.90;;
75280;SDS011;63874;47.230;39.620;2022-12-18T12:12:15;14.68;;;1.60;;
75280;SDS011;63874;47.230;39.620;2022-12-18T12:23:26;9.07;;;1.23;;
75280;SDS011;63874;47.230;39.620;2022-12-18T12:25:57;3.92;;;1.23;;
75280;SDS011;63874;47.230;39.620;2022-12-18T12:33:41;9.15;;;1.67;;
75280;SDS011;63874;47.230;39.620;2022-12-18T12:39:05;5.15;;;1.08;;
75280;SDS011;63874;47.230;39.620;2022-12-18T12:41:36;18.40;;;2.58;;
75280;SDS011;63874;47.230;39.620;2022-12-18T12:44:24;11.90;;;1.30;;
75280;SDS011;63874;47.230;39.620;2022-12-18T12:46:55;10.55;;;2.35;;
75280;SDS011;63874;47.230;39.620;2022-12-18T12:49:25;15.35;;;2.35;;
75280;SDS011;63874;47.230;39.620;2022-12-18T12:52:03;5.35;;;1.38;;
75280;SDS011;63874;47.230;39.620;2022-12-18T12:54:37;15.77;;;2.03;;
75280;SDS011;63874;47.230;39.620;2022-12-18T12:57:07;19.33;;;2.47;;
75280;SDS011;63874;47.230;39.620;2022-12-18T13:05:00;8.98;;;1.33;;
75280;SDS011;63874;47.230;39.620;2022-12-18T13:07:39;7.88;;;1.13;;
75280;SDS011;63874;47.230;39.620;2022-12-18T13:20:34;2.33;;;1.08;;
75280;SDS011;63874;47.230;39.620;2022-12-18T13:29:03;3.30;;;1.45;;
75280;SDS011;63874;47.230;39.620;2022-12-18T13:31:13;3.00;;;0.90;;
75280;SDS011;63874;47.230;39.620;2022-12-18T13:34:19;3.55;;;1.08;;
75280;SDS011;63874;47.230;39.620;2022-12-18T13:36:47;2.38;;;0.70;;
75280;SDS011;63874;47.230;39.620;2022-12-18T13:41:42;2.17;;;0.63;;
75280;SDS011;63874;47.230;39.620;2022-12-18T13:44:32;1.92;;;0.68;;
75280;SDS011;63874;47.230;39.620;2022-12-18T13:47:05;2.70;;;1.33;;
75280;SDS011;63874;47.230;39.620;2022-12-18T13:49:56;2.35;;;0.85;;
75280;SDS011;63874;47.230;39.620;2022-12-18T13:52:25;2.42;;;0.95;;
75280;SDS011;63874;47.230;39.620;2022-12-18T13:55:01;2.25;;;1.20;;
75280;SDS011;63874;47.230;39.620;2022-12-18T14:00:14;2.55;;;1.75;;
75280;SDS011;63874;47.230;39.620;2022-12-18T14:02:48;1.40;;;0.80;;
75280;SDS011;63874;47.230;39.620;2022-12-18T14:05:47;2.00;;;1.17;;
75280;SDS011;63874;47.230;39.620;2022-12-18T14:08:13;2.95;;;0.95;;
75280;SDS011;63874;47.230;39.620;2022-12-18T14:10:41;2.08;;;1.15;;
75280;SDS011;63874;47.230;39.620;2022-12-18T14:13:10;2.13;;;0.65;;
75280;SDS011;63874;47.230;39.620;2022-12-18T14:15:41;1.90;;;0.98;;
75280;SDS011;63874;47.230;39.620;2022-12-18T14:21:19;1.85;;;0.82;;
75280;SDS011;63874;47.230;39.620;2022-12-18T14:23:48;1.70;;;0.65;;
75280;SDS011;63874;47.230;39.620;2022-12-18T14:26:20;2.45;;;0.95;;
75280;SDS011;63874;47.230;39.620;2022-12-18T14:28:57;2.47;;;0.95;;
75280;SDS011;63874;47.230;39.620;2022-12-18T14:31:43;0.82;;;0.25;;
75280;SDS011;63874;47.230;39.620;2022-12-18T14:34:16;1.23;;;0.68;;
75280;SDS011;63874;47.230;39.620;2022-12-18T14:36:44;2.10;;;0.80;;
75280;SDS011;63874;47.230;39.620;2022-12-18T14:39:18;1.55;;;0.93;;
75280;SDS011;63874;47.230;39.620;2022-12-18T14:41:44;1.67;;;0.93;;
75280;SDS011;63874;47.230;39.620;2022-12-18T14:44:11;2.15;;;1.20;;
75280;SDS011;63874;47.230;39.620;2022-12-18T14:46:39;1.70;;;0.77;;
75280;SDS011;63874;47.230;39.620;2022-12-18T14:51:49;2.90;;;0.63;;
75280;SDS011;63874;47.230;39.620;2022-12-18T14:54:19;1.27;;;0.52;;
75280;SDS011;63874;47.230;39.620;2022-12-18T14:56:48;1.83;;;1.17;;
75280;SDS011;63874;47.230;39.620;2022-12-18T14:59:23;1.70;;;0.77;;
75280;SDS011;63874;47.230;39.620;2022-12-18T15:04:24;2.10;;;1.13;;
75280;SDS011;63874;47.230;39.620;2022-12-18T15:07:42;1.45;;;0.68;;
75280;SDS011;63874;47.230;39.620;2022-12-18T15:18:11;1.27;;;0.55;;
75280;SDS011;63874;47.230;39.620;2022-12-18T15:23:25;2.00;;;0.98;;
75280;SDS011;63874;47.230;39.620;2022-12-18T15:26:03;1.75;;;0.77;;
75280;SDS011;63874;47.230;39.620;2022-12-18T15:31:34;1.25;;;0.57;;
75280;SDS011;63874;47.230;39.620;2022-12-18T15:34:02;1.45;;;0.88;;
75280;SDS011;63874;47.230;39.620;2022-12-18T15:36:30;1.85;;;0.68;;
75280;SDS011;63874;47.230;39.620;2022-12-18T15:38:57;1.90;;;0.75;;
75280;SDS011;63874;47.230;39.620;2022-12-18T15:41:23;1.63;;;0.85;;
75280;SDS011;63874;47.230;39.620;2022-12-18T15:43:50;1.17;;;0.57;;
75280;SDS011;63874;47.230;39.620;2022-12-18T15:46:19;1.73;;;0.77;;
75280;SDS011;63874;47.230;39.620;2022-12-18T15:48:50;1.75;;;0.70;;
75280;SDS011;63874;47.230;39.620;2022-12-18T15:51:19;1.25;;;0.63;;
75280;SDS011;63874;47.230;39.620;2022-12-18T15:53:52;1.30;;;0.50;;
75280;SDS011;63874;47.230;39.620;2022-12-18T15:56:20;1.80;;;0.90;;
75280;SDS011;63874;47.230;39.620;2022-12-18T15:59:08;1.90;;;0.52;;
75280;SDS011;63874;47.230;39.620;2022-12-18T16:01:37;1.98;;;0.82;;
75280;SDS011;63874;47.230;39.620;2022-12-18T16:04:03;1.83;;;1.20;;
75280;SDS011;63874;47.230;39.620;2022-12-18T16:06:29;1.30;;;0.68;;
75280;SDS011;63874;47.230;39.620;2022-12-18T16:08:55;2.15;;;1.23;;
75280;SDS011;63874;47.230;39.620;2022-12-18T16:14:06;1.50;;;0.93;;
75280;SDS011;63874;47.230;39.620;2022-12-18T16:16:34;1.88;;;1.15;;
75280;SDS011;63874;47.230;39.620;2022-12-18T16:19:00;1.83;;;1.10;;
75280;SDS011;63874;47.230;39.620;2022-12-18T16:21:26;2.65;;;0.98;;
75280;SDS011;63874;47.230;39.620;2022-12-18T16:23:52;2.20;;;1.42;;
75280;SDS011;63874;47.230;39.620;2022-12-18T16:26:18;1.73;;;0.95;;
75280;SDS011;63874;47.230;39.620;2022-12-18T16:28:44;2.15;;;1.10;;
75280;SDS011;63874;47.230;39.620;2022-12-18T16:31:10;1.77;;;1.00;;
75280;SDS011;63874;47.230;39.620;2022-12-18T16:33:36;1.60;;;0.95;;
75280;SDS011;63874;47.230;39.620;2022-12-18T16:36:02;1.23;;;0.60;;
75280;SDS011;63874;47.230;39.620;2022-12-18T16:38:28;0.82;;;0.35;;
75280;SDS011;63874;47.230;39.620;2022-12-18T16:40:54;1.75;;;0.95;;
75280;SDS011;63874;47.230;39.620;2022-12-18T16:43:52;1.40;;;0.73;;
75280;SDS011;63874;47.230;39.620;2022-12-18T16:46:18;2.28;;;1.13;;
75280;SDS011;63874;47.230;39.620;2022-12-18T16:48:44;1.20;;;0.55;;
75280;SDS011;63874;47.230;39.620;2022-12-18T16:51:10;1.05;;;0.52;;
75280;SDS011;63874;47.230;39.620;2022-12-18T16:53:36;0.80;;;0.35;;
75280;SDS011;63874;47.230;39.620;2022-12-18T16:56:02;0.98;;;0.40;;
75280;SDS011;63874;47.230;39.620;2022-12-18T16:58:28;0.98;;;0.75;;
75280;SDS011;63874;47.230;39.620;2022-12-18T17:00:58;1.17;;;0.75;;
75280;SDS011;63874;47.230;39.620;2022-12-18T17:03:24;0.77;;;0.30;;
75280;SDS011;63874;47.230;39.620;2022-12-18T17:05:51;1.00;;;0.70;;
75280;SDS011;63874;47.230;39.620;2022-12-18T17:08:17;1.08;;;0.60;;
75280;SDS011;63874;47.230;39.620;2022-12-18T17:10:43;1.25;;;0.65;;
75280;SDS011;63874;47.230;39.620;2022-12-18T17:13:09;1.30;;;0.73;;
75280;SDS011;63874;47.230;39.620;2022-12-18T17:15:35;0.73;;;0.32;;